sensor_id;sensor_type;location;lat;lon;timestamp;temperature;humidity
39751;DHT22;37579;51.074;17.004;2023-02-07T00:02:01;22.50;74.00
39751;DHT22;37579;51.074;17.004;2023-02-07T00:04:27;22.50;74.00
39751;DHT22;37579;51.074;17.004;2023-02-07T00:06:53;22.50;74.00
39751;DHT22;37579;51.074;17.004;2023-02-07T00:09:18;22.50;74.00
39751;DHT22;37579;51.074;17.004;2023-02-07T00:11:44;22.50;73.90
39751;DHT22;37579;51.074;17.004;2023-02-07T00:14:11;22.40;73.80
39751;DHT22;37579;51.074;17.004;2023-02-07T00:16:38;22.50;73.90
39751;DHT22;37579;51.074;17.004;2023-02-07T00:19:04;22.40;73.80
39751;DHT22;37579;51.074;17.004;2023-02-07T00:21:30;22.40;73.80
39751;DHT22;37579;51.074;17.004;2023-02-07T00:23:56;22.40;73.80
39751;DHT22;37579;51.074;17.004;2023-02-07T00:26:24;22.40;73.70
39751;DHT22;37579;51.074;17.004;2023-02-07T00:28:52;22.40;73.60
39751;DHT22;37579;51.074;17.004;2023-02-07T00:31:25;22.40;73.60
39751;DHT22;37579;51.074;17.004;2023-02-07T00:33:53;22.40;73.60
39751;DHT22;37579;51.074;17.004;2023-02-07T00:36:22;22.40;73.60
39751;DHT22;37579;51.074;17.004;2023-02-07T00:38:48;22.40;73.60
39751;DHT22;37579;51.074;17.004;2023-02-07T00:41:15;22.40;73.60
39751;DHT22;37579;51.074;17.004;2023-02-07T00:43:44;22.30;73.50
39751;DHT22;37579;51.074;17.004;2023-02-07T00:46:10;22.30;73.40
39751;DHT22;37579;51.074;17.004;2023-02-07T00:48:36;22.30;73.50
39751;DHT22;37579;51.074;17.004;2023-02-07T00:51:06;22.30;73.40
39751;DHT22;37579;51.074;17.004;2023-02-07T00:53:33;22.30;73.40
39751;DHT22;37579;51.074;17.004;2023-02-07T00:55:59;22.30;73.40
39751;DHT22;37579;51.074;17.004;2023-02-07T00:58:25;22.30;73.40
39751;DHT22;37579;51.074;17.004;2023-02-07T01:00:51;22.30;73.50
39751;DHT22;37579;51.074;17.004;2023-02-07T01:03:17;22.30;73.50
39751;DHT22;37579;51.074;17.004;2023-02-07T01:05:43;22.20;73.40
39751;DHT22;37579;51.074;17.004;2023-02-07T01:08:09;22.20;73.30
39751;DHT22;37579;51.074;17.004;2023-02-07T01:10:38;22.20;73.30
39751;DHT22;37579;51.074;17.004;2023-02-07T01:13:05;22.20;73.30
39751;DHT22;37579;51.074;17.004;2023-02-07T01:15:32;22.20;73.30
39751;DHT22;37579;51.074;17.004;2023-02-07T01:18:00;22.20;73.20
39751;DHT22;37579;51.074;17.004;2023-02-07T01:20:27;22.20;73.20
39751;DHT22;37579;51.074;17.004;2023-02-07T01:22:53;22.20;73.10
39751;DHT22;37579;51.074;17.004;2023-02-07T01:25:19;22.20;73.40
39751;DHT22;37579;51.074;17.004;2023-02-07T01:27:45;22.20;73.20
39751;DHT22;37579;51.074;17.004;2023-02-07T01:30:12;22.30;73.20
39751;DHT22;37579;51.074;17.004;2023-02-07T01:32:38;22.20;73.10
39751;DHT22;37579;51.074;17.004;2023-02-07T01:35:04;22.30;73.10
39751;DHT22;37579;51.074;17.004;2023-02-07T01:37:31;22.30;73.10
39751;DHT22;37579;51.074;17.004;2023-02-07T01:39:57;22.30;73.10
39751;DHT22;37579;51.074;17.004;2023-02-07T01:42:24;22.30;73.10
39751;DHT22;37579;51.074;17.004;2023-02-07T01:47:18;22.30;73.00
39751;DHT22;37579;51.074;17.004;2023-02-07T01:49:45;22.30;73.00
39751;DHT22;37579;51.074;17.004;2023-02-07T01:52:18;22.30;73.00
39751;DHT22;37579;51.074;17.004;2023-02-07T01:54:48;22.30;73.00
39751;DHT22;37579;51.074;17.004;2023-02-07T01:57:18;22.30;73.00
39751;DHT22;37579;51.074;17.004;2023-02-07T01:59:45;22.30;73.00
39751;DHT22;37579;51.074;17.004;2023-02-07T02:02:14;22.30;73.10
39751;DHT22;37579;51.074;17.004;2023-02-07T02:04:42;22.30;73.00
39751;DHT22;37579;51.074;17.004;2023-02-07T02:07:09;22.30;72.90
39751;DHT22;37579;51.074;17.004;2023-02-07T02:09:36;22.30;72.70
39751;DHT22;37579;51.074;17.004;2023-02-07T02:12:35;22.30;72.70
39751;DHT22;37579;51.074;17.004;2023-02-07T02:15:38;22.30;72.60
39751;DHT22;37579;51.074;17.004;2023-02-07T02:21:17;22.30;72.40
39751;DHT22;37579;51.074;17.004;2023-02-07T02:32:12;22.20;72.20
39751;DHT22;37579;51.074;17.004;2023-02-07T02:43:04;22.20;72.00
39751;DHT22;37579;51.074;17.004;2023-02-07T02:45:38;22.20;71.90
39751;DHT22;37579;51.074;17.004;2023-02-07T02:48:05;22.20;72.00
39751;DHT22;37579;51.074;17.004;2023-02-07T02:50:33;22.20;72.10
39751;DHT22;37579;51.074;17.004;2023-02-07T02:53:00;22.20;72.00
39751;DHT22;37579;51.074;17.004;2023-02-07T02:55:35;22.20;71.80
39751;DHT22;37579;51.074;17.004;2023-02-07T03:01:08;22.30;71.50
39751;DHT22;37579;51.074;17.004;2023-02-07T03:06:36;22.40;71.40
39751;DHT22;37579;51.074;17.004;2023-02-07T03:11:54;22.40;71.20
39751;DHT22;37579;51.074;17.004;2023-02-07T03:16:59;22.40;71.00
39751;DHT22;37579;51.074;17.004;2023-02-07T03:19:38;22.40;70.90
39751;DHT22;37579;51.074;17.004;2023-02-07T03:22:09;22.50;70.80
39751;DHT22;37579;51.074;17.004;2023-02-07T03:24:40;22.50;70.70
39751;DHT22;37579;51.074;17.004;2023-02-07T03:27:11;22.50;70.60
39751;DHT22;37579;51.074;17.004;2023-02-07T03:29:39;22.50;70.70
39751;DHT22;37579;51.074;17.004;2023-02-07T03:32:07;22.50;70.70
39751;DHT22;37579;51.074;17.004;2023-02-07T03:34:40;22.50;70.70
39751;DHT22;37579;51.074;17.004;2023-02-07T03:37:31;22.50;70.60
39751;DHT22;37579;51.074;17.004;2023-02-07T03:39:59;22.40;70.50
39751;DHT22;37579;51.074;17.004;2023-02-07T03:45:10;22.40;70.40
39751;DHT22;37579;51.074;17.004;2023-02-07T03:47:37;22.40;70.30
39751;DHT22;37579;51.074;17.004;2023-02-07T03:50:03;22.40;70.30
39751;DHT22;37579;51.074;17.004;2023-02-07T03:52:29;22.40;70.10
39751;DHT22;37579;51.074;17.004;2023-02-07T03:54:55;22.40;70.20
39751;DHT22;37579;51.074;17.004;2023-02-07T03:57:20;22.40;70.30
39751;DHT22;37579;51.074;17.004;2023-02-07T03:59:46;22.30;70.30
39751;DHT22;37579;51.074;17.004;2023-02-07T04:02:12;22.30;70.30
39751;DHT22;37579;51.074;17.004;2023-02-07T04:04:38;22.20;70.30
39751;DHT22;37579;51.074;17.004;2023-02-07T04:07:04;22.30;70.40
39751;DHT22;37579;51.074;17.004;2023-02-07T04:09:30;22.30;70.40
39751;DHT22;37579;51.074;17.004;2023-02-07T04:11:56;22.20;70.40
39751;DHT22;37579;51.074;17.004;2023-02-07T04:14:22;22.20;70.50
39751;DHT22;37579;51.074;17.004;2023-02-07T04:16:48;22.20;70.40
39751;DHT22;37579;51.074;17.004;2023-02-07T04:19:15;22.20;70.50
39751;DHT22;37579;51.074;17.004;2023-02-07T04:21:41;22.10;70.40
39751;DHT22;37579;51.074;17.004;2023-02-07T04:24:07;22.10;70.50
39751;DHT22;37579;51.074;17.004;2023-02-07T04:26:33;22.10;70.50
39751;DHT22;37579;51.074;17.004;2023-02-07T04:28:59;22.10;70.60
39751;DHT22;37579;51.074;17.004;2023-02-07T04:31:25;22.10;70.50
39751;DHT22;37579;51.074;17.004;2023-02-07T04:33:51;22.10;70.50
39751;DHT22;37579;51.074;17.004;2023-02-07T04:36:17;22.10;70.40
39751;DHT22;37579;51.074;17.004;2023-02-07T04:38:43;22.10;70.40
39751;DHT22;37579;51.074;17.004;2023-02-07T04:41:09;22.10;70.20
39751;DHT22;37579;51.074;17.004;2023-02-07T04:43:36;22.10;70.00
39751;DHT22;37579;51.074;17.004;2023-02-07T04:46:03;22.20;70.00
39751;DHT22;37579;51.074;17.004;2023-02-07T04:48:29;22.10;69.90
39751;DHT22;37579;51.074;17.004;2023-02-07T04:50:55;22.20;69.90
39751;DHT22;37579;51.074;17.004;2023-02-07T04:53:21;22.10;69.80
39751;DHT22;37579;51.074;17.004;2023-02-07T04:55:52;22.10;69.70
39751;DHT22;37579;51.074;17.004;2023-02-07T04:58:19;22.10;69.70
39751;DHT22;37579;51.074;17.004;2023-02-07T05:00:45;22.10;69.80
39751;DHT22;37579;51.074;17.004;2023-02-07T05:03:11;22.10;69.80
39751;DHT22;37579;51.074;17.004;2023-02-07T05:05:41;22.10;69.80
39751;DHT22;37579;51.074;17.004;2023-02-07T05:08:08;22.00;69.70
39751;DHT22;37579;51.074;17.004;2023-02-07T05:10:34;22.00;69.60
39751;DHT22;37579;51.074;17.004;2023-02-07T05:13:00;22.00;69.70
39751;DHT22;37579;51.074;17.004;2023-02-07T05:15:26;22.00;69.70
39751;DHT22;37579;51.074;17.004;2023-02-07T05:17:52;22.10;69.60
39751;DHT22;37579;51.074;17.004;2023-02-07T05:20:19;22.10;69.30
39751;DHT22;37579;51.074;17.004;2023-02-07T05:22:45;22.20;69.10
39751;DHT22;37579;51.074;17.004;2023-02-07T05:25:10;22.30;68.90
39751;DHT22;37579;51.074;17.004;2023-02-07T05:27:37;22.40;68.80
39751;DHT22;37579;51.074;17.004;2023-02-07T05:30:04;22.50;68.80
39751;DHT22;37579;51.074;17.004;2023-02-07T05:32:30;22.50;68.70
39751;DHT22;37579;51.074;17.004;2023-02-07T05:35:14;22.50;68.50
39751;DHT22;37579;51.074;17.004;2023-02-07T05:37:41;22.60;68.40
39751;DHT22;37579;51.074;17.004;2023-02-07T05:40:07;22.70;68.30
39751;DHT22;37579;51.074;17.004;2023-02-07T05:42:33;22.70;68.20
39751;DHT22;37579;51.074;17.004;2023-02-07T05:44:59;22.70;68.20
39751;DHT22;37579;51.074;17.004;2023-02-07T05:47:25;22.70;68.20
39751;DHT22;37579;51.074;17.004;2023-02-07T05:49:51;22.70;68.10
39751;DHT22;37579;51.074;17.004;2023-02-07T05:52:17;22.70;68.00
39751;DHT22;37579;51.074;17.004;2023-02-07T05:54:43;22.70;68.00
39751;DHT22;37579;51.074;17.004;2023-02-07T05:57:08;22.70;68.00
39751;DHT22;37579;51.074;17.004;2023-02-07T05:59:34;22.70;68.00
39751;DHT22;37579;51.074;17.004;2023-02-07T06:02:00;22.70;67.90
39751;DHT22;37579;51.074;17.004;2023-02-07T06:04:26;22.80;68.00
39751;DHT22;37579;51.074;17.004;2023-02-07T06:06:52;22.80;68.30
39751;DHT22;37579;51.074;17.004;2023-02-07T06:09:17;22.80;68.50
39751;DHT22;37579;51.074;17.004;2023-02-07T06:11:44;22.80;68.90
39751;DHT22;37579;51.074;17.004;2023-02-07T06:14:09;22.90;69.00
39751;DHT22;37579;51.074;17.004;2023-02-07T06:16:35;22.90;69.20
39751;DHT22;37579;51.074;17.004;2023-02-07T06:19:01;22.90;69.30
39751;DHT22;37579;51.074;17.004;2023-02-07T06:21:27;23.00;69.30
39751;DHT22;37579;51.074;17.004;2023-02-07T06:23:52;22.90;69.30
39751;DHT22;37579;51.074;17.004;2023-02-07T06:26:18;22.90;69.40
39751;DHT22;37579;51.074;17.004;2023-02-07T06:28:44;23.00;69.50
39751;DHT22;37579;51.074;17.004;2023-02-07T06:31:10;22.90;69.60
39751;DHT22;37579;51.074;17.004;2023-02-07T06:33:36;22.90;69.70
39751;DHT22;37579;51.074;17.004;2023-02-07T06:36:02;22.90;69.70
39751;DHT22;37579;51.074;17.004;2023-02-07T06:38:28;22.90;69.70
39751;DHT22;37579;51.074;17.004;2023-02-07T06:40:54;22.90;69.40
39751;DHT22;37579;51.074;17.004;2023-02-07T06:43:20;22.80;69.30
39751;DHT22;37579;51.074;17.004;2023-02-07T06:45:45;22.90;69.20
39751;DHT22;37579;51.074;17.004;2023-02-07T06:48:11;22.90;69.00
39751;DHT22;37579;51.074;17.004;2023-02-07T06:50:37;22.80;69.00
39751;DHT22;37579;51.074;17.004;2023-02-07T06:53:03;22.90;69.00
39751;DHT22;37579;51.074;17.004;2023-02-07T06:55:31;22.80;69.00
39751;DHT22;37579;51.074;17.004;2023-02-07T06:57:57;22.80;69.10
39751;DHT22;37579;51.074;17.004;2023-02-07T07:00:24;22.90;69.30
39751;DHT22;37579;51.074;17.004;2023-02-07T07:02:50;22.80;69.40
39751;DHT22;37579;51.074;17.004;2023-02-07T07:05:16;22.80;69.50
39751;DHT22;37579;51.074;17.004;2023-02-07T07:07:42;22.80;69.50
39751;DHT22;37579;51.074;17.004;2023-02-07T07:10:09;22.80;69.60
39751;DHT22;37579;51.074;17.004;2023-02-07T07:12:35;22.80;69.70
39751;DHT22;37579;51.074;17.004;2023-02-07T07:15:01;22.80;69.90
39751;DHT22;37579;51.074;17.004;2023-02-07T07:17:26;22.90;69.90
39751;DHT22;37579;51.074;17.004;2023-02-07T07:19:52;22.90;69.90
39751;DHT22;37579;51.074;17.004;2023-02-07T07:22:18;22.90;69.80
39751;DHT22;37579;51.074;17.004;2023-02-07T07:24:45;22.90;69.60
39751;DHT22;37579;51.074;17.004;2023-02-07T07:27:11;22.90;69.60
39751;DHT22;37579;51.074;17.004;2023-02-07T07:29:37;22.90;69.60
39751;DHT22;37579;51.074;17.004;2023-02-07T07:32:04;23.00;69.60
39751;DHT22;37579;51.074;17.004;2023-02-07T07:34:30;23.00;69.60
39751;DHT22;37579;51.074;17.004;2023-02-07T07:36:56;23.00;69.70
39751;DHT22;37579;51.074;17.004;2023-02-07T07:39:23;23.00;69.60
39751;DHT22;37579;51.074;17.004;2023-02-07T07:41:49;23.10;69.40
39751;DHT22;37579;51.074;17.004;2023-02-07T07:44:32;23.10;69.30
39751;DHT22;37579;51.074;17.004;2023-02-07T07:46:57;23.10;69.40
39751;DHT22;37579;51.074;17.004;2023-02-07T07:49:23;23.10;69.50
39751;DHT22;37579;51.074;17.004;2023-02-07T07:51:49;23.10;69.70
39751;DHT22;37579;51.074;17.004;2023-02-07T07:54:15;23.20;69.80
39751;DHT22;37579;51.074;17.004;2023-02-07T07:56:41;23.20;69.80
39751;DHT22;37579;51.074;17.004;2023-02-07T07:59:06;23.10;69.80
39751;DHT22;37579;51.074;17.004;2023-02-07T08:01:32;23.20;69.80
39751;DHT22;37579;51.074;17.004;2023-02-07T08:03:58;23.20;69.90
39751;DHT22;37579;51.074;17.004;2023-02-07T08:06:24;23.20;70.10
39751;DHT22;37579;51.074;17.004;2023-02-07T08:08:50;23.20;70.10
39751;DHT22;37579;51.074;17.004;2023-02-07T08:11:15;23.30;70.10
39751;DHT22;37579;51.074;17.004;2023-02-07T08:13:41;23.40;70.10
39751;DHT22;37579;51.074;17.004;2023-02-07T08:16:07;23.40;70.10
39751;DHT22;37579;51.074;17.004;2023-02-07T08:18:35;23.40;69.80
39751;DHT22;37579;51.074;17.004;2023-02-07T08:21:01;23.50;69.80
39751;DHT22;37579;51.074;17.004;2023-02-07T08:23:27;23.50;69.70
39751;DHT22;37579;51.074;17.004;2023-02-07T08:25:53;23.50;69.60
39751;DHT22;37579;51.074;17.004;2023-02-07T08:28:20;23.60;69.70
39751;DHT22;37579;51.074;17.004;2023-02-07T08:30:46;23.60;69.60
39751;DHT22;37579;51.074;17.004;2023-02-07T08:33:13;23.60;69.70
39751;DHT22;37579;51.074;17.004;2023-02-07T08:35:40;23.60;69.60
39751;DHT22;37579;51.074;17.004;2023-02-07T08:38:06;23.50;69.60
39751;DHT22;37579;51.074;17.004;2023-02-07T08:40:32;23.50;69.60
39751;DHT22;37579;51.074;17.004;2023-02-07T08:42:59;23.60;69.50
39751;DHT22;37579;51.074;17.004;2023-02-07T08:45:24;23.60;69.80
39751;DHT22;37579;51.074;17.004;2023-02-07T08:47:51;23.50;70.00
39751;DHT22;37579;51.074;17.004;2023-02-07T08:50:16;23.60;70.20
39751;DHT22;37579;51.074;17.004;2023-02-07T08:52:43;23.60;70.30
39751;DHT22;37579;51.074;17.004;2023-02-07T08:55:09;23.50;70.30
39751;DHT22;37579;51.074;17.004;2023-02-07T08:57:35;23.60;70.50
39751;DHT22;37579;51.074;17.004;2023-02-07T09:00:02;23.60;70.70
39751;DHT22;37579;51.074;17.004;2023-02-07T09:02:28;23.50;70.60
39751;DHT22;37579;51.074;17.004;2023-02-07T09:04:54;23.60;70.60
39751;DHT22;37579;51.074;17.004;2023-02-07T09:07:20;23.60;70.50
39751;DHT22;37579;51.074;17.004;2023-02-07T09:09:46;23.60;70.50
39751;DHT22;37579;51.074;17.004;2023-02-07T09:12:12;23.50;70.40
39751;DHT22;37579;51.074;17.004;2023-02-07T09:14:39;23.60;70.50
39751;DHT22;37579;51.074;17.004;2023-02-07T09:17:06;23.60;70.60
39751;DHT22;37579;51.074;17.004;2023-02-07T09:19:33;23.60;70.60
39751;DHT22;37579;51.074;17.004;2023-02-07T09:21:59;23.50;70.50
39751;DHT22;37579;51.074;17.004;2023-02-07T09:24:25;23.50;70.70
39751;DHT22;37579;51.074;17.004;2023-02-07T09:26:51;23.50;70.80
39751;DHT22;37579;51.074;17.004;2023-02-07T09:29:17;23.60;70.90
39751;DHT22;37579;51.074;17.004;2023-02-07T09:31:43;23.60;71.00
39751;DHT22;37579;51.074;17.004;2023-02-07T09:34:09;23.60;71.20
39751;DHT22;37579;51.074;17.004;2023-02-07T09:36:35;23.50;71.20
39751;DHT22;37579;51.074;17.004;2023-02-07T09:39:01;23.50;71.20
39751;DHT22;37579;51.074;17.004;2023-02-07T09:45:01;23.50;71.00
39751;DHT22;37579;51.074;17.004;2023-02-07T09:47:28;23.50;70.90
39751;DHT22;37579;51.074;17.004;2023-02-07T09:50:22;23.50;71.00
39751;DHT22;37579;51.074;17.004;2023-02-07T09:52:56;23.50;70.90
39751;DHT22;37579;51.074;17.004;2023-02-07T09:55:34;23.50;70.90
39751;DHT22;37579;51.074;17.004;2023-02-07T09:58:13;23.40;71.10
39751;DHT22;37579;51.074;17.004;2023-02-07T10:00:39;23.40;71.20
39751;DHT22;37579;51.074;17.004;2023-02-07T10:03:17;23.40;71.30
39751;DHT22;37579;51.074;17.004;2023-02-07T10:06:02;23.40;71.40
39751;DHT22;37579;51.074;17.004;2023-02-07T10:08:28;23.40;71.50
39751;DHT22;37579;51.074;17.004;2023-02-07T10:16:10;23.40;71.60
39751;DHT22;37579;51.074;17.004;2023-02-07T10:24:40;23.40;72.00
39751;DHT22;37579;51.074;17.004;2023-02-07T10:27:11;23.40;72.00
39751;DHT22;37579;51.074;17.004;2023-02-07T10:32:24;23.40;72.30
39751;DHT22;37579;51.074;17.004;2023-02-07T10:35:07;23.40;72.30
39751;DHT22;37579;51.074;17.004;2023-02-07T10:37:39;23.40;72.30
39751;DHT22;37579;51.074;17.004;2023-02-07T10:40:17;23.40;72.30
39751;DHT22;37579;51.074;17.004;2023-02-07T10:42:49;23.40;72.50
39751;DHT22;37579;51.074;17.004;2023-02-07T10:45:16;23.40;72.40
39751;DHT22;37579;51.074;17.004;2023-02-07T10:47:42;23.40;72.40
39751;DHT22;37579;51.074;17.004;2023-02-07T10:50:20;23.40;72.40
39751;DHT22;37579;51.074;17.004;2023-02-07T10:52:51;23.40;72.30
39751;DHT22;37579;51.074;17.004;2023-02-07T10:55:20;23.30;72.60
39751;DHT22;37579;51.074;17.004;2023-02-07T10:57:58;23.30;72.30
39751;DHT22;37579;51.074;17.004;2023-02-07T11:00:31;23.30;72.20
39751;DHT22;37579;51.074;17.004;2023-02-07T11:03:05;23.30;72.10
39751;DHT22;37579;51.074;17.004;2023-02-07T11:05:37;23.30;72.10
39751;DHT22;37579;51.074;17.004;2023-02-07T11:08:33;23.40;72.20
39751;DHT22;37579;51.074;17.004;2023-02-07T11:13:47;23.30;72.60
39751;DHT22;37579;51.074;17.004;2023-02-07T11:16:15;23.30;71.80
39751;DHT22;37579;51.074;17.004;2023-02-07T11:21:25;23.30;71.60
39751;DHT22;37579;51.074;17.004;2023-02-07T11:23:54;23.30;71.60
39751;DHT22;37579;51.074;17.004;2023-02-07T11:26:22;23.40;71.70
39751;DHT22;37579;51.074;17.004;2023-02-07T11:28:53;23.40;71.60
39751;DHT22;37579;51.074;17.004;2023-02-07T11:31:31;23.50;71.60
39751;DHT22;37579;51.074;17.004;2023-02-07T11:34:40;23.50;71.50
39751;DHT22;37579;51.074;17.004;2023-02-07T11:39:45;23.50;71.50
39751;DHT22;37579;51.074;17.004;2023-02-07T11:42:13;23.50;71.50
39751;DHT22;37579;51.074;17.004;2023-02-07T11:44:43;23.60;71.70
39751;DHT22;37579;51.074;17.004;2023-02-07T11:47:24;23.50;71.80
39751;DHT22;37579;51.074;17.004;2023-02-07T11:49:59;23.50;72.00
39751;DHT22;37579;51.074;17.004;2023-02-07T11:52:26;23.60;72.30
39751;DHT22;37579;51.074;17.004;2023-02-07T11:54:56;23.50;72.20
39751;DHT22;37579;51.074;17.004;2023-02-07T11:57:23;23.40;72.20
39751;DHT22;37579;51.074;17.004;2023-02-07T12:00:06;23.40;72.10
39751;DHT22;37579;51.074;17.004;2023-02-07T12:02:48;23.40;72.00
39751;DHT22;37579;51.074;17.004;2023-02-07T12:05:25;23.40;72.10
39751;DHT22;37579;51.074;17.004;2023-02-07T12:07:57;23.40;72.10
39751;DHT22;37579;51.074;17.004;2023-02-07T12:10:28;23.40;72.10
39751;DHT22;37579;51.074;17.004;2023-02-07T12:15:46;23.30;72.20
39751;DHT22;37579;51.074;17.004;2023-02-07T12:18:27;23.40;72.10
39751;DHT22;37579;51.074;17.004;2023-02-07T12:21:05;23.30;72.00
39751;DHT22;37579;51.074;17.004;2023-02-07T12:26:27;23.30;72.00
39751;DHT22;37579;51.074;17.004;2023-02-07T12:29:24;23.30;72.30
39751;DHT22;37579;51.074;17.004;2023-02-07T12:35:00;23.20;72.80
39751;DHT22;37579;51.074;17.004;2023-02-07T12:59:54;23.60;72.30
39751;DHT22;37579;51.074;17.004;2023-02-07T13:02:32;23.60;72.30
39751;DHT22;37579;51.074;17.004;2023-02-07T13:13:26;23.40;72.60
39751;DHT22;37579;51.074;17.004;2023-02-07T13:16:18;23.40;72.70
39751;DHT22;37579;51.074;17.004;2023-02-07T13:21:37;23.30;72.90
39751;DHT22;37579;51.074;17.004;2023-02-07T13:24:06;23.30;73.10
39751;DHT22;37579;51.074;17.004;2023-02-07T13:26:34;23.30;73.20
39751;DHT22;37579;51.074;17.004;2023-02-07T13:29:06;23.30;73.00
39751;DHT22;37579;51.074;17.004;2023-02-07T13:31:42;23.20;73.00
39751;DHT22;37579;51.074;17.004;2023-02-07T13:34:17;23.20;73.00
39751;DHT22;37579;51.074;17.004;2023-02-07T13:36:48;23.20;73.10
39751;DHT22;37579;51.074;17.004;2023-02-07T13:45:12;23.30;72.80
39751;DHT22;37579;51.074;17.004;2023-02-07T13:50:58;23.30;72.70
39751;DHT22;37579;51.074;17.004;2023-02-07T13:56:31;23.40;73.10
39751;DHT22;37579;51.074;17.004;2023-02-07T13:59:37;23.30;73.00
39751;DHT22;37579;51.074;17.004;2023-02-07T14:02:26;23.30;72.70
39751;DHT22;37579;51.074;17.004;2023-02-07T14:05:05;23.30;72.70
39751;DHT22;37579;51.074;17.004;2023-02-07T14:07:32;23.30;72.60
39751;DHT22;37579;51.074;17.004;2023-02-07T14:10:02;23.30;72.40
39751;DHT22;37579;51.074;17.004;2023-02-07T14:12:34;23.30;72.50
39751;DHT22;37579;51.074;17.004;2023-02-07T14:15:52;23.10;72.30
39751;DHT22;37579;51.074;17.004;2023-02-07T14:31:53;23.10;72.10
39751;DHT22;37579;51.074;17.004;2023-02-07T14:34:20;23.20;72.10
39751;DHT22;37579;51.074;17.004;2023-02-07T14:36:46;23.20;72.20
39751;DHT22;37579;51.074;17.004;2023-02-07T14:41:41;23.10;72.10
39751;DHT22;37579;51.074;17.004;2023-02-07T14:44:26;23.10;72.00
39751;DHT22;37579;51.074;17.004;2023-02-07T14:46:55;23.10;72.00
39751;DHT22;37579;51.074;17.004;2023-02-07T14:49:32;23.10;72.10
39751;DHT22;37579;51.074;17.004;2023-02-07T14:57:25;23.10;72.20
39751;DHT22;37579;51.074;17.004;2023-02-07T15:02:38;23.00;72.10
39751;DHT22;37579;51.074;17.004;2023-02-07T15:08:04;23.10;72.10
39751;DHT22;37579;51.074;17.004;2023-02-07T15:10:36;23.00;72.00
39751;DHT22;37579;51.074;17.004;2023-02-07T15:13:05;23.00;72.10
39751;DHT22;37579;51.074;17.004;2023-02-07T15:15:47;23.00;72.30
39751;DHT22;37579;51.074;17.004;2023-02-07T15:18:16;23.00;72.30
39751;DHT22;37579;51.074;17.004;2023-02-07T15:20:51;23.00;72.30
39751;DHT22;37579;51.074;17.004;2023-02-07T15:23:18;23.00;72.20
39751;DHT22;37579;51.074;17.004;2023-02-07T15:25:44;23.00;72.30
39751;DHT22;37579;51.074;17.004;2023-02-07T15:28:27;23.00;72.30
39751;DHT22;37579;51.074;17.004;2023-02-07T15:31:11;23.00;72.30
39751;DHT22;37579;51.074;17.004;2023-02-07T15:36:27;23.00;72.20
39751;DHT22;37579;51.074;17.004;2023-02-07T15:38:54;23.00;72.10
39751;DHT22;37579;51.074;17.004;2023-02-07T15:41:20;23.00;72.10
39751;DHT22;37579;51.074;17.004;2023-02-07T15:44:07;23.00;72.00
39751;DHT22;37579;51.074;17.004;2023-02-07T15:54:47;23.10;71.60
39751;DHT22;37579;51.074;17.004;2023-02-07T15:57:40;23.10;71.70
39751;DHT22;37579;51.074;17.004;2023-02-07T16:00:14;23.10;71.60
39751;DHT22;37579;51.074;17.004;2023-02-07T16:02:52;23.10;71.50
39751;DHT22;37579;51.074;17.004;2023-02-07T16:07:53;23.20;71.40
39751;DHT22;37579;51.074;17.004;2023-02-07T16:12:59;23.20;71.30
39751;DHT22;37579;51.074;17.004;2023-02-07T16:15:30;23.20;71.20
39751;DHT22;37579;51.074;17.004;2023-02-07T16:17:57;23.20;71.30
39751;DHT22;37579;51.074;17.004;2023-02-07T16:20:26;23.20;71.20
39751;DHT22;37579;51.074;17.004;2023-02-07T16:22:55;23.20;71.20
39751;DHT22;37579;51.074;17.004;2023-02-07T16:25:24;23.20;71.30
39751;DHT22;37579;51.074;17.004;2023-02-07T16:27:51;23.20;71.30
39751;DHT22;37579;51.074;17.004;2023-02-07T16:30:39;23.20;71.30
39751;DHT22;37579;51.074;17.004;2023-02-07T16:33:07;23.20;71.20
39751;DHT22;37579;51.074;17.004;2023-02-07T16:35:35;23.20;71.20
39751;DHT22;37579;51.074;17.004;2023-02-07T16:38:01;23.20;71.30
39751;DHT22;37579;51.074;17.004;2023-02-07T16:40:27;23.20;71.30
39751;DHT22;37579;51.074;17.004;2023-02-07T16:42:54;23.20;71.30
39751;DHT22;37579;51.074;17.004;2023-02-07T16:45:24;23.20;71.20
39751;DHT22;37579;51.074;17.004;2023-02-07T16:47:50;23.20;71.30
39751;DHT22;37579;51.074;17.004;2023-02-07T16:50:19;23.20;71.30
39751;DHT22;37579;51.074;17.004;2023-02-07T16:52:46;23.10;71.20
39751;DHT22;37579;51.074;17.004;2023-02-07T16:55:15;23.10;71.30
39751;DHT22;37579;51.074;17.004;2023-02-07T16:57:41;23.10;71.30
39751;DHT22;37579;51.074;17.004;2023-02-07T17:00:11;23.10;71.40
39751;DHT22;37579;51.074;17.004;2023-02-07T17:02:38;23.10;71.30
39751;DHT22;37579;51.074;17.004;2023-02-07T17:05:04;23.10;71.20
39751;DHT22;37579;51.074;17.004;2023-02-07T17:07:29;23.10;71.00
39751;DHT22;37579;51.074;17.004;2023-02-07T17:09:56;23.10;70.80
39751;DHT22;37579;51.074;17.004;2023-02-07T17:12:23;23.10;70.70
39751;DHT22;37579;51.074;17.004;2023-02-07T17:14:49;23.00;70.60
39751;DHT22;37579;51.074;17.004;2023-02-07T17:17:15;23.10;70.80
39751;DHT22;37579;51.074;17.004;2023-02-07T17:19:40;23.00;70.80
39751;DHT22;37579;51.074;17.004;2023-02-07T17:22:07;23.00;70.90
39751;DHT22;37579;51.074;17.004;2023-02-07T17:24:33;23.00;70.80
39751;DHT22;37579;51.074;17.004;2023-02-07T17:26:59;23.00;71.00
39751;DHT22;37579;51.074;17.004;2023-02-07T17:29:25;23.10;71.80
39751;DHT22;37579;51.074;17.004;2023-02-07T17:31:51;23.20;71.60
39751;DHT22;37579;51.074;17.004;2023-02-07T17:34:16;23.20;71.60
39751;DHT22;37579;51.074;17.004;2023-02-07T17:36:48;23.30;71.50
39751;DHT22;37579;51.074;17.004;2023-02-07T17:39:15;23.30;71.40
39751;DHT22;37579;51.074;17.004;2023-02-07T17:41:41;23.40;71.30
39751;DHT22;37579;51.074;17.004;2023-02-07T17:44:07;23.40;71.30
39751;DHT22;37579;51.074;17.004;2023-02-07T17:46:33;23.40;71.20
39751;DHT22;37579;51.074;17.004;2023-02-07T17:48:59;23.50;71.10
39751;DHT22;37579;51.074;17.004;2023-02-07T17:51:26;23.50;71.10
39751;DHT22;37579;51.074;17.004;2023-02-07T17:53:54;23.50;71.00
39751;DHT22;37579;51.074;17.004;2023-02-07T17:56:24;23.50;71.00
39751;DHT22;37579;51.074;17.004;2023-02-07T17:58:51;23.50;70.90
39751;DHT22;37579;51.074;17.004;2023-02-07T18:01:17;23.60;70.90
39751;DHT22;37579;51.074;17.004;2023-02-07T18:03:48;23.60;71.10
39751;DHT22;37579;51.074;17.004;2023-02-07T18:06:16;23.60;71.10
39751;DHT22;37579;51.074;17.004;2023-02-07T18:08:42;23.70;71.10